Time;durP1;ratioP1;P1;durP2;ratioP2;P2;SDS_P1;SDS_P2;PMS_P1;PMS_P2;Temp;Humidity;BMP_temperature;BMP_pressure;BME280_temperature;BME280_humidity;BME280_pressure;Samples;Min_cycle;Max_cycle;Signal;HPM_P1;HPM_P2
2023/07/01 00:01:30;;;;;;;4.35;2.72;;;;;;;19.34;50.62;99168.47;4996066;28;20030;-78
2023/07/01 00:03:56;;;;;;;4.07;1.97;;;;;;;19.31;50.51;99163.63;4993914;28;20041;-79
2023/07/01 00:06:21;;;;;;;4.10;2.20;;;;;;;19.23;50.21;99157.03;4993327;28;20030;-81
2023/07/01 00:08:47;;;;;;;7.37;2.73;;;;;;;19.25;50.75;99161.06;4995207;28;20034;-81
2023/07/01 00:11:13;;;;;;;7.45;2.92;;;;;;;19.20;50.31;99150.22;4994170;28;20030;-81
2023/07/01 00:13:38;;;;;;;16.48;3.42;;;;;;;19.27;50.33;99151.63;4993582;28;20035;-81
2023/07/01 00:16:04;;;;;;;4.80;2.50;;;;;;;19.25;50.69;99141.72;4993969;28;20046;-82
2023/07/01 00:18:30;;;;;;;8.88;3.22;;;;;;;19.25;50.35;99144.50;4993281;28;20034;-81
2023/07/01 00:20:55;;;;;;;7.32;3.63;;;;;;;19.28;50.38;99144.97;4992980;28;20428;-81
2023/07/01 00:23:20;;;;;;;12.95;2.65;;;;;;;19.21;50.25;99134.44;5000171;28;20022;-79
2023/07/01 00:25:46;;;;;;;6.15;2.95;;;;;;;19.21;50.53;99139.97;4993496;28;20034;-81
2023/07/01 00:28:12;;;;;;;4.07;2.17;;;;;;;19.16;50.76;99129.94;4993532;28;20041;-81
2023/07/01 00:30:37;;;;;;;4.60;2.17;;;;;;;19.12;50.84;99126.19;4993793;28;20950;-81
2023/07/01 00:33:05;;;;;;;5.68;2.72;;;;;;;19.04;51.15;99127.91;4994058;28;20292;-81
2023/07/01 00:35:30;;;;;;;5.18;2.60;;;;;;;19.16;50.84;99118.09;4998768;28;20598;-81
2023/07/01 00:37:56;;;;;;;6.47;2.95;;;;;;;19.15;50.98;99122.81;4993614;28;20030;-82
2023/07/01 00:40:21;;;;;;;5.07;2.27;;;;;;;19.06;50.97;99119.28;4992930;28;20039;-82
2023/07/01 00:42:46;;;;;;;9.93;3.10;;;;;;;19.09;50.84;99118.59;4993411;28;20291;-81
2023/07/01 00:45:11;;;;;;;6.60;2.47;;;;;;;19.01;51.15;99118.34;4993410;28;20264;-81
2023/07/01 00:47:39;;;;;;;7.37;3.00;;;;;;;18.93;51.23;99113.72;4993210;28;20032;-81
2023/07/01 00:50:10;;;;;;;7.50;2.42;;;;;;;19.09;51.17;99113.91;4993200;28;20031;-80
2023/07/01 00:52:36;;;;;;;5.85;3.25;;;;;;;19.16;51.13;99110.59;4993106;28;20049;-81
2023/07/01 00:55:01;;;;;;;6.72;3.20;;;;;;;19.17;50.81;99103.94;4993641;28;20030;-80
2023/07/01 00:57:27;;;;;;;5.43;2.92;;;;;;;19.22;50.93;99097.41;4992672;28;20811;-81
2023/07/01 00:59:52;;;;;;;7.35;2.90;;;;;;;19.16;51.00;99098.75;4994475;28;20030;-81
2023/07/01 01:02:23;;;;;;;8.33;3.10;;;;;;;19.12;50.89;99090.28;4993498;28;20027;-79
2023/07/01 01:05:10;;;;;;;6.18;3.22;;;;;;;19.08;51.03;99100.44;4992755;28;20708;-78
2023/07/01 01:07:58;;;;;;;6.07;3.10;;;;;;;19.08;51.20;99094.91;4991153;28;20258;-78
2023/07/01 01:10:24;;;;;;;5.88;3.13;;;;;;;19.04;51.43;99089.22;4983800;28;20078;-78
2023/07/01 01:12:56;;;;;;;8.13;2.80;;;;;;;18.93;51.79;99082.50;4991864;28;20036;-78
2023/07/01 01:15:23;;;;;;;8.35;2.70;;;;;;;19.03;51.95;99082.09;4991485;28;20046;-78
2023/07/01 01:17:52;;;;;;;5.55;2.78;;;;;;;19.04;51.70;99078.19;4992269;28;20022;-78
2023/07/01 01:20:20;;;;;;;3.85;2.20;;;;;;;19.01;51.87;99074.16;4991976;28;20084;-78
2023/07/01 01:23:03;;;;;;;5.38;2.60;;;;;;;19.06;51.63;99069.56;4994201;28;20538;-78
2023/07/01 01:25:48;;;;;;;4.43;2.70;;;;;;;18.92;52.03;99061.56;4992249;28;20041;-77
2023/07/01 01:28:15;;;;;;;4.60;2.30;;;;;;;18.97;52.07;99064.13;4988433;28;20584;-78
2023/07/01 01:30:40;;;;;;;8.93;3.50;;;;;;;18.95;52.23;99064.47;4992205;28;20038;-78
2023/07/01 01:33:06;;;;;;;6.07;2.40;;;;;;;18.99;52.21;99048.84;4995098;28;20668;-78
2023/07/01 01:35:31;;;;;;;5.82;2.95;;;;;;;18.95;52.48;99047.91;5000695;28;20030;-79
2023/07/01 01:38:26;;;;;;;5.22;2.45;;;;;;;18.94;52.48;99039.94;4995550;28;20134;-81
2023/07/01 01:41:17;;;;;;;5.20;2.78;;;;;;;18.91;52.82;99033.16;5002967;28;20047;-78
2023/07/01 01:43:42;;;;;;;7.57;2.45;;;;;;;18.86;53.11;99033.34;4995484;28;20031;-77
2023/07/01 01:46:08;;;;;;;4.50;2.47;;;;;;;18.85;53.06;99032.56;4995344;28;20033;-78
2023/07/01 01:48:34;;;;;;;4.20;2.47;;;;;;;18.81;53.05;99031.63;4995204;28;20432;-78
2023/07/01 01:51:02;;;;;;;9.18;2.72;;;;;;;18.84;53.22;99027.34;4994659;28;20720;-78
2023/07/01 01:53:28;;;;;;;7.28;2.47;;;;;;;18.84;53.57;99027.34;4995179;28;20468;-79
2023/07/01 01:55:54;;;;;;;6.30;2.60;;;;;;;18.89;53.34;99018.88;4995120;28;20026;-77
2023/07/01 01:58:20;;;;;;;5.50;2.85;;;;;;;18.81;53.46;99015.06;4994698;28;20027;-79
2023/07/01 02:00:46;;;;;;;11.30;3.42;;;;;;;18.86;53.49;99023.13;4995321;28;21196;-77
2023/07/01 02:03:12;;;;;;;9.98;2.25;;;;;;;18.95;53.27;99009.25;4996466;28;20061;-77
2023/07/01 02:05:37;;;;;;;3.88;2.30;;;;;;;19.00;53.12;99011.78;4994680;28;20034;-77
2023/07/01 02:08:04;;;;;;;5.37;3.00;;;;;;;19.10;52.99;99009.75;4994174;28;20042;-78
2023/07/01 02:10:29;;;;;;;6.60;3.00;;;;;;;19.02;53.25;99005.91;4995013;28;20256;-78
2023/07/01 02:12:55;;;;;;;6.30;3.45;;;;;;;18.92;53.40;99004.38;4994286;28;20515;-76
2023/07/01 02:15:20;;;;;;;7.73;2.53;;;;;;;18.95;53.14;99003.72;4994329;28;20022;-77
2023/07/01 02:17:45;;;;;;;6.72;2.88;;;;;;;18.96;53.28;98997.03;4993889;28;20022;-76
2023/07/01 02:20:11;;;;;;;11.00;2.93;;;;;;;19.07;53.34;98994.66;4993622;28;20034;-77
2023/07/01 02:22:37;;;;;;;7.70;3.33;;;;;;;18.87;53.34;98988.03;4994027;28;20034;-79
2023/07/01 02:25:02;;;;;;;8.18;3.50;;;;;;;18.97;53.44;98984.03;4993901;28;20584;-78
2023/07/01 02:27:30;;;;;;;4.50;2.20;;;;;;;18.94;53.69;98980.00;4993794;28;20030;-78
2023/07/01 02:29:56;;;;;;;6.88;2.53;;;;;;;18.81;53.88;98981.94;4991603;28;21182;-76
2023/07/01 02:32:21;;;;;;;4.47;2.20;;;;;;;18.90;53.42;98971.59;4993941;28;20023;-79
2023/07/01 02:34:46;;;;;;;5.70;2.95;;;;;;;18.91;53.61;98975.16;4993610;28;20030;-76
2023/07/01 02:37:11;;;;;;;5.23;2.40;;;;;;;18.85;53.32;98971.81;4993691;28;20113;-77
2023/07/01 02:39:38;;;;;;;6.30;3.15;;;;;;;18.85;53.82;98979.28;4993425;28;20279;-76
2023/07/01 02:42:04;;;;;;;5.18;2.80;;;;;;;18.74;53.70;98982.47;4988273;28;20502;-77
2023/07/01 02:44:29;;;;;;;8.18;3.08;;;;;;;18.74;53.44;98974.19;4992961;28;20019;-77
2023/07/01 02:46:54;;;;;;;5.53;2.30;;;;;;;18.87;52.97;98975.03;4993439;28;20387;-77
2023/07/01 02:49:20;;;;;;;9.32;3.15;;;;;;;19.02;53.45;98981.03;4993377;28;20030;-78
2023/07/01 02:51:46;;;;;;;6.20;2.55;;;;;;;19.02;52.63;98965.28;4993547;28;20455;-78
2023/07/01 02:54:11;;;;;;;5.80;2.30;;;;;;;19.04;53.09;98964.94;4993824;28;20027;-78
2023/07/01 02:56:36;;;;;;;10.57;3.08;;;;;;;19.06;52.47;98965.41;4993462;28;20237;-77
2023/07/01 02:59:03;;;;;;;6.90;3.07;;;;;;;19.11;52.19;98970.72;4993310;28;20068;-77
2023/07/01 03:01:29;;;;;;;4.80;2.95;;;;;;;19.04;52.12;98969.69;4993645;28;20279;-77
2023/07/01 03:03:54;;;;;;;5.10;2.10;;;;;;;19.05;52.11;98963.00;4993774;28;20038;-78
2023/07/01 03:06:20;;;;;;;5.87;2.70;;;;;;;19.27;52.02;98974.78;4993416;28;20053;-77
2023/07/01 03:08:45;;;;;;;4.40;1.93;;;;;;;19.19;51.54;98973.75;4993567;28;20422;-77
2023/07/01 03:11:10;;;;;;;5.20;2.35;;;;;;;19.23;51.73;98969.97;4993332;28;20030;-77
2023/07/01 03:13:37;;;;;;;7.25;2.17;;;;;;;19.25;51.39;98973.19;4993523;28;20044;-77
2023/07/01 03:16:03;;;;;;;3.65;1.70;;;;;;;19.20;51.44;98970.66;4994099;28;20030;-82
2023/07/01 03:18:28;;;;;;;3.60;2.00;;;;;;;19.12;51.95;98963.22;4994775;28;20034;-82
2023/07/01 03:21:00;;;;;;;3.53;2.10;;;;;;;19.09;52.11;98970.25;4994946;28;20638;-81
2023/07/01 03:23:26;;;;;;;4.72;2.40;;;;;;;19.21;51.87;98966.75;4994782;28;20080;-81
2023/07/01 03:25:51;;;;;;;3.63;2.28;;;;;;;19.18;51.66;98961.09;4994663;28;20023;-82
2023/07/01 03:28:16;;;;;;;5.30;1.90;;;;;;;19.25;51.99;98962.16;4994575;28;20038;-82
2023/07/01 03:30:42;;;;;;;5.43;2.43;;;;;;;19.17;51.94;98959.47;4994586;28;20041;-81
2023/07/01 03:33:08;;;;;;;5.23;2.53;;;;;;;19.27;51.81;98952.69;4994604;28;20030;-82
2023/07/01 03:35:33;;;;;;;3.85;1.63;;;;;;;19.19;51.22;98946.94;4993720;28;20446;-82
2023/07/01 03:37:58;;;;;;;4.30;2.00;;;;;;;19.14;51.63;98941.63;4993542;28;20029;-83
2023/07/01 03:40:23;;;;;;;3.67;1.70;;;;;;;19.20;51.26;98943.00;4994987;28;20476;-81
2023/07/01 03:42:48;;;;;;;6.97;2.37;;;;;;;19.06;51.88;98942.53;4992286;28;20034;-81
2023/07/01 03:45:14;;;;;;;5.93;2.13;;;;;;;18.98;51.93;98935.94;4992736;28;20030;-81
2023/07/01 03:47:44;;;;;;;6.82;2.17;;;;;;;19.00;51.97;98939.16;4992430;28;20018;-81
2023/07/01 03:50:10;;;;;;;11.20;2.92;;;;;;;18.97;51.85;98946.19;4992569;28;20046;-80
2023/07/01 03:52:37;;;;;;;4.05;2.13;;;;;;;19.14;51.88;98938.88;4992936;28;20050;-80
2023/07/01 03:55:03;;;;;;;5.65;2.60;;;;;;;19.08;51.67;98929.19;4992564;28;20022;-81
2023/07/01 03:57:28;;;;;;;6.43;2.97;;;;;;;19.20;51.45;98937.50;4991641;28;20034;-81
2023/07/01 03:59:54;;;;;;;6.05;2.53;;;;;;;19.25;51.46;98937.28;4992159;28;20033;-82
2023/07/01 04:02:19;;;;;;;3.65;1.77;;;;;;;19.31;51.11;98931.50;4990758;28;20034;-82
2023/07/01 04:04:44;;;;;;;4.73;2.47;;;;;;;19.28;51.20;98927.50;4989756;28;20034;-82
2023/07/01 04:07:09;;;;;;;9.23;2.88;;;;;;;19.07;51.35;98919.28;4991921;28;20292;-82
2023/07/01 04:09:35;;;;;;;5.33;2.17;;;;;;;19.15;51.52;98925.88;4991303;28;20383;-82
2023/07/01 04:12:00;;;;;;;6.67;2.70;;;;;;;19.13;51.27;98909.63;4992411;28;20310;-82
2023/07/01 04:14:25;;;;;;;6.05;3.15;;;;;;;19.10;51.92;98905.56;4993974;28;20026;-82
2023/07/01 04:16:51;;;;;;;6.13;2.63;;;;;;;19.27;51.58;98906.53;4993413;28;20042;-82
2023/07/01 04:19:16;;;;;;;4.97;2.40;;;;;;;19.28;51.71;98910.13;4998048;28;20322;-82
2023/07/01 04:21:41;;;;;;;8.55;2.63;;;;;;;19.30;51.68;98907.81;4993514;28;20283;-82
2023/07/01 04:24:07;;;;;;;6.03;2.55;;;;;;;19.37;51.83;98908.03;4993534;28;20101;-82
2023/07/01 04:26:34;;;;;;;5.65;2.53;;;;;;;19.10;51.96;98899.25;4993717;28;20647;-82
2023/07/01 04:28:59;;;;;;;4.38;2.33;;;;;;;19.21;52.27;98889.38;4992288;28;20480;-82
2023/07/01 04:31:24;;;;;;;13.27;3.08;;;;;;;19.27;52.13;98897.44;4993412;28;20037;-82
2023/07/01 04:33:50;;;;;;;4.93;3.05;;;;;;;19.29;52.23;98897.91;4992625;28;20101;-82
2023/07/01 04:36:15;;;;;;;9.33;2.37;;;;;;;19.18;52.07;98887.31;4993733;28;20022;-81
2023/07/01 04:38:41;;;;;;;3.92;2.03;;;;;;;19.26;52.36;98891.13;4993020;28;20018;-82
2023/07/01 04:41:06;;;;;;;5.32;1.83;;;;;;;19.38;52.05;98892.28;4993675;28;20026;-82
2023/07/01 04:43:31;;;;;;;8.05;2.47;;;;;;;19.34;52.27;98883.88;4993742;28;21291;-81
2023/07/01 04:45:57;;;;;;;4.38;2.00;;;;;;;19.33;52.82;98885.00;4993352;28;20175;-82
2023/07/01 04:48:22;;;;;;;4.70;1.50;;;;;;;19.28;52.53;98891.59;5000375;28;20065;-82
2023/07/01 04:50:47;;;;;;;8.30;3.65;;;;;;;19.29;52.43;98892.38;4991951;28;21293;-81
2023/07/01 04:53:13;;;;;;;4.90;1.90;;;;;;;19.25;52.61;98889.50;4993514;28;20487;-81
2023/07/01 04:55:38;;;;;;;14.70;2.97;;;;;;;19.28;52.45;98883.31;4993035;28;20076;-82
2023/07/01 04:58:03;;;;;;;3.72;1.95;;;;;;;19.22;52.44;98882.69;4992674;28;20029;-82
2023/07/01 05:00:29;;;;;;;4.70;2.40;;;;;;;19.24;52.85;98891.44;4993488;28;20081;-82
2023/07/01 05:02:54;;;;;;;5.45;2.05;;;;;;;19.37;52.53;98885.94;4993871;28;20256;-82
2023/07/01 05:05:19;;;;;;;7.80;3.13;;;;;;;19.40;52.61;98876.97;4994365;28;20117;-82
2023/07/01 05:07:45;;;;;;;7.35;2.50;;;;;;;19.23;52.71;98862.22;4995980;28;20066;-82
2023/07/01 05:10:10;;;;;;;3.93;1.87;;;;;;;19.24;52.98;98863.81;4997005;28;20109;-82
2023/07/01 05:12:35;;;;;;;5.97;2.67;;;;;;;19.32;52.91;98866.84;4992572;28;20645;-82
2023/07/01 05:15:00;;;;;;;5.33;1.93;;;;;;;19.29;52.82;98859.22;4997308;28;20343;-82
2023/07/01 05:17:26;;;;;;;7.43;2.70;;;;;;;19.45;52.37;98846.31;4997287;28;20737;-82
2023/07/01 05:19:51;;;;;;;5.20;2.53;;;;;;;19.34;52.63;98859.00;4997326;28;20034;-82
2023/07/01 05:22:16;;;;;;;3.83;1.87;;;;;;;19.33;52.64;98849.09;4996786;28;20373;-81
2023/07/01 05:24:42;;;;;;;4.77;2.50;;;;;;;19.36;52.56;98851.19;4997197;28;20256;-81
2023/07/01 05:27:07;;;;;;;6.18;2.20;;;;;;;19.40;52.69;98840.22;4997267;28;20268;-82
2023/07/01 05:29:32;;;;;;;4.93;2.17;;;;;;;19.41;52.71;98839.88;4997911;28;20034;-82
2023/07/01 05:31:57;;;;;;;6.23;2.53;;;;;;;19.44;52.87;98844.72;4997181;28;21023;-82
2023/07/01 05:34:23;;;;;;;5.28;2.95;;;;;;;19.49;52.54;98832.59;4992119;28;20267;-82
2023/07/01 05:36:50;;;;;;;5.55;2.17;;;;;;;19.59;52.27;98836.84;4997191;28;20022;-82
2023/07/01 05:39:16;;;;;;;5.65;2.85;;;;;;;19.45;52.40;98838.03;4996510;28;20037;-81
2023/07/01 05:41:41;;;;;;;6.70;2.45;;;;;;;19.43;52.90;98831.22;4998745;28;20030;-82
2023/07/01 05:44:07;;;;;;;6.60;2.63;;;;;;;19.44;52.70;98830.09;4999006;28;20050;-82
2023/07/01 05:46:32;;;;;;;3.08;1.80;;;;;;;19.52;52.64;98828.34;4996796;28;20060;-82
2023/07/01 05:48:58;;;;;;;6.30;2.33;;;;;;;19.50;52.91;98834.22;4996327;28;20476;-81
2023/07/01 05:51:23;;;;;;;6.17;2.27;;;;;;;19.55;52.63;98838.69;4996730;28;20070;-81
2023/07/01 05:53:48;;;;;;;6.53;2.00;;;;;;;19.45;52.88;98834.44;4995967;28;20943;-82
2023/07/01 05:56:15;;;;;;;6.25;2.60;;;;;;;19.62;52.74;98833.41;4994869;28;20323;-80
2023/07/01 05:58:40;;;;;;;5.10;2.15;;;;;;;19.69;52.59;98830.03;4991934;28;20034;-80
2023/07/01 06:01:05;;;;;;;9.50;3.33;;;;;;;19.64;52.76;98827.50;4991469;28;20667;-81
2023/07/01 06:03:30;;;;;;;4.77;2.40;;;;;;;19.55;52.79;98827.63;4992008;28;20033;-78
2023/07/01 06:05:56;;;;;;;5.83;3.03;;;;;;;19.58;53.00;98826.94;4990048;28;20307;-80
2023/07/01 06:08:21;;;;;;;7.43;2.77;;;;;;;19.45;52.68;98821.44;4991986;28;20744;-80
2023/07/01 06:10:49;;;;;;;7.77;3.00;;;;;;;19.63;53.08;98821.16;4991952;28;20030;-81
2023/07/01 06:13:15;;;;;;;5.32;3.10;;;;;;;19.70;53.23;98821.41;4991192;28;20271;-80
2023/07/01 06:15:40;;;;;;;7.32;3.08;;;;;;;19.85;52.98;98821.00;4991416;28;20026;-79
2023/07/01 06:18:05;;;;;;;7.13;2.73;;;;;;;19.90;53.25;98824.31;4985595;28;20093;-79
2023/07/01 06:20:30;;;;;;;7.43;1.83;;;;;;;19.65;53.09;98821.63;4987031;28;20118;-84
2023/07/01 06:22:55;;;;;;;13.13;4.53;;;;;;;19.76;52.91;98815.63;4984902;28;20127;-72
2023/07/01 06:25:21;;;;;;;6.07;2.53;;;;;;;19.71;53.12;98828.53;4985033;28;20112;-73
2023/07/01 06:27:46;;;;;;;6.47;2.50;;;;;;;19.86;53.08;98828.13;4985349;28;20041;-73
2023/07/01 06:30:11;;;;;;;5.38;2.30;;;;;;;19.80;52.80;98828.41;4984446;28;20290;-74
2023/07/01 06:32:37;;;;;;;8.82;2.42;;;;;;;19.76;53.38;98823.91;4982305;28;20038;-73
2023/07/01 06:35:02;;;;;;;9.88;2.50;;;;;;;19.75;53.09;98830.59;4984775;28;20077;-73
2023/07/01 06:37:28;;;;;;;7.53;3.20;;;;;;;19.77;53.50;98826.31;4985713;28;20035;-72
2023/07/01 06:39:53;;;;;;;7.47;4.03;;;;;;;19.69;54.88;98825.31;4984701;28;20528;-73
2023/07/01 06:42:18;;;;;;;7.93;2.30;;;;;;;19.58;56.36;98830.53;4984835;28;20037;-71
2023/07/01 06:44:43;;;;;;;10.05;2.97;;;;;;;19.54;56.96;98834.34;4985342;28;20026;-71
2023/07/01 06:47:09;;;;;;;4.87;2.77;;;;;;;19.33;59.38;98819.50;4985157;28;20023;-72
2023/07/01 06:49:34;;;;;;;6.37;3.00;;;;;;;18.99;60.65;98827.09;4984675;28;20030;-71
2023/07/01 06:51:59;;;;;;;7.00;4.10;;;;;;;19.06;61.73;98827.31;4984306;28;20538;-81
2023/07/01 06:54:24;;;;;;;24.30;22.30;;;;;;;18.99;61.76;98833.44;4986887;28;20494;-81
2023/07/01 06:56:50;;;;;;;150.83;137.37;;;;;;;19.05;62.51;98825.72;4988812;28;20026;-80
2023/07/01 06:59:15;;;;;;;338.67;321.38;;;;;;;19.02;62.57;98832.72;4984926;28;20096;-84
2023/07/01 07:01:40;;;;;;;665.73;623.77;;;;;;;18.84;63.01;98831.31;4985603;28;20447;-82
2023/07/01 07:04:06;;;;;;;656.83;617.13;;;;;;;18.95;63.90;98826.97;4985894;28;20381;-85
2023/07/01 07:06:31;;;;;;;234.35;223.73;;;;;;;18.99;63.96;98824.34;4986405;28;20677;-80
2023/07/01 07:08:57;;;;;;;190.23;182.07;;;;;;;18.97;63.92;98823.88;4983151;28;20551;-80
2023/07/01 07:11:22;;;;;;;157.65;150.95;;;;;;;19.14;64.20;98822.84;4984897;28;20272;-80
2023/07/01 07:13:48;;;;;;;253.68;242.55;;;;;;;19.19;64.08;98828.16;4984875;28;20430;-80
2023/07/01 07:16:13;;;;;;;321.02;305.42;;;;;;;18.93;63.59;98815.47;4984756;28;20038;-81
2023/07/01 07:18:38;;;;;;;281.83;267.75;;;;;;;18.85;63.96;98833.75;4984817;28;20038;-80
2023/07/01 07:21:03;;;;;;;268.57;256.23;;;;;;;19.02;64.41;98827.19;4985282;28;20030;-80
2023/07/01 07:23:29;;;;;;;469.00;443.63;;;;;;;18.94;64.06;98830.06;4984982;28;20783;-80
2023/07/01 07:25:54;;;;;;;349.10;331.60;;;;;;;18.77;64.06;98835.47;4985335;28;20278;-80
2023/07/01 07:28:19;;;;;;;432.25;410.95;;;;;;;18.82;64.26;98823.41;4984484;28;20419;-81
2023/07/01 07:30:45;;;;;;;501.77;475.67;;;;;;;18.83;63.87;98835.25;4984379;28;20435;-81
2023/07/01 07:33:10;;;;;;;543.67;512.67;;;;;;;18.99;64.47;98827.91;4984989;28;20034;-84
2023/07/01 07:35:35;;;;;;;578.90;545.17;;;;;;;18.92;64.19;98822.13;4984880;28;20073;-82
2023/07/01 07:38:00;;;;;;;425.17;403.80;;;;;;;18.87;64.28;98827.91;4983713;28;20295;-81
2023/07/01 07:40:26;;;;;;;431.07;409.53;;;;;;;19.06;64.74;98823.75;4984773;28;20352;-83
2023/07/01 07:42:54;;;;;;;386.93;369.73;;;;;;;19.26;64.36;98824.81;4986386;28;20742;-84
2023/07/01 07:45:22;;;;;;;435.98;414.55;;;;;;;19.28;64.56;98821.72;4991687;28;20033;-84
2023/07/01 07:47:48;;;;;;;413.00;394.70;;;;;;;19.30;64.61;98817.41;4985411;28;20514;-83
2023/07/01 07:50:13;;;;;;;417.25;397.10;;;;;;;19.23;65.29;98825.50;4986274;28;20318;-84
2023/07/01 07:52:39;;;;;;;592.67;557.95;;;;;;;18.89;65.35;98823.66;4984471;28;20046;-83
2023/07/01 07:55:04;;;;;;;603.60;569.03;;;;;;;18.86;66.09;98823.50;4981924;28;20030;-83
2023/07/01 07:57:30;;;;;;;667.83;627.50;;;;;;;18.63;66.67;98829.47;4984117;28;20280;-83
2023/07/01 07:59:55;;;;;;;521.10;489.88;;;;;;;18.67;66.89;98828.44;4983754;28;20034;-81
2023/07/01 08:02:21;;;;;;;432.37;402.97;;;;;;;18.72;66.49;98819.13;4984377;28;20062;-84
2023/07/01 08:04:47;;;;;;;423.73;396.30;;;;;;;18.74;66.83;98822.34;4984671;28;20391;-85
2023/07/01 08:07:12;;;;;;;547.30;509.92;;;;;;;18.76;66.10;98811.78;4984080;28;20697;-78
2023/07/01 08:09:37;;;;;;;329.33;312.40;;;;;;;18.90;65.71;98814.19;4984003;28;20034;-79
2023/07/01 08:12:03;;;;;;;393.50;370.37;;;;;;;18.94;65.66;98808.78;4984185;28;20035;-80
2023/07/01 08:14:29;;;;;;;399.63;379.33;;;;;;;18.87;65.44;98820.44;4983403;28;20603;-81
2023/07/01 08:16:56;;;;;;;347.67;330.48;;;;;;;18.84;65.84;98809.25;4983404;28;20026;-79
2023/07/01 08:19:21;;;;;;;486.25;456.15;;;;;;;18.81;65.82;98812.69;4983133;28;20046;-79
2023/07/01 08:21:46;;;;;;;305.13;280.63;;;;;;;18.79;66.02;98807.53;4983367;28;20034;-81
2023/07/01 08:24:12;;;;;;;258.20;241.85;;;;;;;18.66;66.82;98809.47;4983699;28;20034;-78
2023/07/01 08:26:37;;;;;;;6.15;2.30;;;;;;;18.81;66.82;98816.28;4984042;28;20073;-79
2023/07/01 08:29:07;;;;;;;3.60;2.00;;;;;;;18.80;66.91;98811.88;4983600;28;20502;-79
2023/07/01 08:31:32;;;;;;;4.82;2.13;;;;;;;18.94;67.02;98807.97;4984026;28;20263;-79
2023/07/01 08:33:58;;;;;;;5.10;2.65;;;;;;;19.09;67.05;98804.53;4984061;28;20042;-79
2023/07/01 08:36:24;;;;;;;5.82;2.20;;;;;;;18.93;67.47;98809.94;4984005;28;20042;-82
2023/07/01 08:38:49;;;;;;;4.50;1.67;;;;;;;18.83;67.83;98813.97;4983756;28;20038;-79
2023/07/01 08:41:15;;;;;;;4.53;2.40;;;;;;;18.58;69.27;98802.09;4983800;28;20034;-83
2023/07/01 08:43:44;;;;;;;5.65;2.00;;;;;;;18.84;68.78;98807.28;4988292;28;20042;-79
2023/07/01 08:46:12;;;;;;;4.78;2.13;;;;;;;18.97;68.21;98818.34;4988185;28;20065;-79
2023/07/01 08:48:38;;;;;;;4.05;2.20;;;;;;;19.01;68.47;98813.75;4987511;28;20614;-79
2023/07/01 08:51:23;;;;;;;5.63;2.20;;;;;;;18.71;69.70;98806.50;4987655;28;20031;-79
2023/07/01 08:53:50;;;;;;;5.00;2.17;;;;;;;18.84;69.77;98809.25;4988481;28;20045;-79
2023/07/01 08:56:19;;;;;;;6.55;2.47;;;;;;;18.91;70.09;98798.44;4988099;28;20058;-80
2023/07/01 08:58:46;;;;;;;9.43;2.80;;;;;;;18.93;69.72;98796.16;4987453;28;20054;-79
2023/07/01 09:01:12;;;;;;;5.57;2.63;;;;;;;18.92;70.14;98789.00;4988123;28;20030;-79
2023/07/01 09:03:37;;;;;;;6.45;2.63;;;;;;;18.64;70.80;98796.00;4986954;28;20037;-79
2023/07/01 09:06:05;;;;;;;4.03;2.17;;;;;;;19.00;70.85;98810.16;4987592;28;20038;-79
2023/07/01 09:08:32;;;;;;;8.93;2.85;;;;;;;18.87;70.78;98801.09;4987720;28;20045;-78
2023/07/01 09:10:57;;;;;;;4.38;2.42;;;;;;;19.16;69.90;98797.66;4986081;28;20050;-79
2023/07/01 09:13:23;;;;;;;4.75;2.03;;;;;;;19.05;70.85;98794.53;4987332;28;20030;-78
2023/07/01 09:15:48;;;;;;;6.22;3.03;;;;;;;19.08;70.68;98793.84;4986613;28;20049;-84
2023/07/01 09:18:19;;;;;;;5.65;2.45;;;;;;;19.15;70.68;98796.84;4988012;28;20038;-84
2023/07/01 09:20:44;;;;;;;8.65;2.47;;;;;;;19.14;70.86;98800.75;4987778;28;20030;-84
2023/07/01 09:23:10;;;;;;;5.83;2.90;;;;;;;18.95;71.63;98799.38;4988223;28;20034;-83
2023/07/01 09:25:35;;;;;;;4.03;2.40;;;;;;;18.98;72.12;98795.09;4988205;28;20607;-84
2023/07/01 09:28:00;;;;;;;5.10;2.50;;;;;;;19.14;72.03;98795.22;4987186;28;20034;-84
2023/07/01 09:30:27;;;;;;;8.77;2.83;;;;;;;19.05;72.46;98781.53;4988007;28;20034;-84
2023/07/01 09:33:13;;;;;;;5.78;2.85;;;;;;;19.07;72.58;98783.94;4988247;28;20256;-85
2023/07/01 09:35:43;;;;;;;6.50;2.92;;;;;;;19.17;72.72;98783.50;4988158;28;20102;-84
2023/07/01 09:38:08;;;;;;;4.85;2.28;;;;;;;19.28;72.57;98780.25;4987529;28;20665;-84
2023/07/01 09:40:34;;;;;;;4.22;2.17;;;;;;;19.35;72.63;98778.53;4987364;28;20034;-84
2023/07/01 09:42:59;;;;;;;6.60;2.87;;;;;;;19.35;72.92;98783.22;4987782;28;20038;-84
2023/07/01 09:45:24;;;;;;;3.78;2.38;;;;;;;19.65;72.60;98776.63;4987953;28;20373;-84
2023/07/01 09:47:54;;;;;;;4.57;2.20;;;;;;;19.60;72.21;98783.19;4987445;28;20425;-84
2023/07/01 09:50:28;;;;;;;4.63;1.77;;;;;;;19.59;72.06;98771.31;4986800;28;20093;-83
2023/07/01 09:52:55;;;;;;;3.70;1.90;;;;;;;19.71;71.99;98773.22;4987247;28;20543;-85
2023/07/01 09:55:21;;;;;;;4.75;2.30;;;;;;;19.62;72.29;98774.53;4986655;28;20117;-84
2023/07/01 09:57:47;;;;;;;3.55;1.65;;;;;;;19.60;72.88;98783.19;4987206;28;20033;-83
2023/07/01 10:00:15;;;;;;;10.98;2.63;;;;;;;19.44;72.72;98778.41;4988996;28;20037;-77
2023/07/01 10:02:43;;;;;;;3.60;2.15;;;;;;;19.31;73.45;98772.06;4991226;28;20419;-78
2023/07/01 10:05:09;;;;;;;2.88;1.85;;;;;;;19.11;73.99;98774.63;4991486;28;20042;-78
2023/07/01 10:07:34;;;;;;;4.85;2.30;;;;;;;19.28;74.12;98767.25;4990167;28;20053;-78
2023/07/01 10:10:00;;;;;;;3.03;1.87;;;;;;;19.36;74.77;98762.75;4989208;28;20089;-77
2023/07/01 10:12:26;;;;;;;13.07;2.08;;;;;;;19.08;75.74;98763.47;4988108;28;21268;-76
2023/07/01 10:14:52;;;;;;;2.75;1.73;;;;;;;19.16;76.78;98776.34;4988582;28;20123;-76
2023/07/01 10:17:18;;;;;;;3.33;1.95;;;;;;;18.92;77.84;98766.91;4991236;28;20480;-77
2023/07/01 10:19:46;;;;;;;3.05;1.88;;;;;;;19.17;77.86;98766.13;4989843;28;20129;-77
2023/07/01 10:22:31;;;;;;;4.07;2.75;;;;;;;19.21;78.31;98758.75;4989037;28;20042;-76
2023/07/01 10:25:03;;;;;;;3.65;1.92;;;;;;;19.31;78.29;98760.22;4989526;28;20129;-76
2023/07/01 10:27:41;;;;;;;4.20;2.80;;;;;;;19.14;79.22;98759.31;4989191;28;20046;-75
2023/07/01 10:30:08;;;;;;;4.80;2.75;;;;;;;19.29;79.77;98759.75;4988907;28;20085;-78
2023/07/01 10:32:33;;;;;;;3.40;2.05;;;;;;;19.37;79.55;98761.59;4990363;28;20443;-78
2023/07/01 10:34:59;;;;;;;2.92;1.65;;;;;;;19.31;79.05;98754.69;4988383;28;20050;-76
2023/07/01 10:37:26;;;;;;;2.63;1.55;;;;;;;19.49;79.24;98763.50;4989680;28;20038;-75
2023/07/01 10:39:53;;;;;;;2.50;1.35;;;;;;;19.53;78.28;98747.03;4987799;28;20054;-78
2023/07/01 10:42:31;;;;;;;2.53;1.70;;;;;;;19.59;77.69;98753.91;4989490;28;20130;-77
2023/07/01 10:45:12;;;;;;;3.80;1.40;;;;;;;19.75;77.30;98748.44;4988866;28;20065;-76
2023/07/01 10:47:42;;;;;;;2.08;1.25;;;;;;;19.56;77.48;98751.88;4988809;28;20042;-77
2023/07/01 10:50:10;;;;;;;2.92;1.45;;;;;;;19.60;78.23;98745.28;4988256;28;20042;-79
2023/07/01 10:53:00;;;;;;;1.95;1.20;;;;;;;19.71;78.66;98756.63;4986862;28;20120;-76
2023/07/01 10:55:46;;;;;;;5.05;1.50;;;;;;;19.39;79.76;98752.94;4985480;28;20053;-76
2023/07/01 10:58:28;;;;;;;2.45;1.50;;;;;;;19.35;80.54;98748.13;4984823;28;20037;-75
2023/07/01 11:00:59;;;;;;;5.68;1.67;;;;;;;19.60;80.40;98744.50;4984401;28;20053;-76
2023/07/01 11:03:36;;;;;;;6.00;1.80;;;;;;;19.67;79.20;98736.38;4984254;28;20038;-76
2023/07/01 11:06:04;;;;;;;3.25;1.38;;;;;;;19.64;79.44;98742.63;4984480;28;20041;-75
2023/07/01 11:08:30;;;;;;;1.27;0.93;;;;;;;19.81;79.87;98735.97;4984618;28;20034;-76
2023/07/01 11:10:56;;;;;;;5.20;1.17;;;;;;;19.95;79.24;98743.06;4984383;28;20040;-76
2023/07/01 11:13:22;;;;;;;1.90;1.08;;;;;;;20.09;79.81;98734.38;4985902;28;20489;-76
2023/07/01 11:16:05;;;;;;;3.22;0.90;;;;;;;20.13;79.92;98737.25;4986586;28;20045;-76
2023/07/01 11:18:48;;;;;;;1.70;1.08;;;;;;;20.24;79.95;98743.06;4986409;28;20092;-77
2023/07/01 11:21:25;;;;;;;2.90;1.05;;;;;;;20.14;79.70;98739.66;4986098;28;20984;-76
2023/07/01 11:23:52;;;;;;;2.30;1.23;;;;;;;20.17;80.36;98746.44;4986119;28;20065;-76
2023/07/01 11:26:25;;;;;;;0.70;0.52;;;;;;;20.10;80.67;98744.28;4986766;28;20104;-76
2023/07/01 11:28:51;;;;;;;1.20;0.60;;;;;;;20.12;80.02;98750.25;4985694;28;20038;-76